Majesty of the Seas — C6FZ8 — position and weather

sailwx.info

Track history (hours):
 
Tides and Currents Weather Stations Pressure Air Temp Water Temp Dewpoint Dewpoint Depression Visibility Wind Speed Wind Dir Waves Ship Positions

Majesty of the Seas (Bahamas)

Last reported at 2015-Mar-27 16:15 UTC. Time now 2015-Mar-27 17:24 UTC.
Position N 25°47' W 080°11'.

Length 268 m; draft 7.6 m.

Type: Passenger vessel. MMSI: 311734000.

Date/timePositionNaut miles runAvg speedWind from/ knotsBaromVisibWave heightAir tempDewpointWater temp
2015-Mar-27 16:15N 25°47' W 080°11'0 0.0
2015-Mar-27 15:33N 25°47' W 080°11'0 0.0
2015-Mar-27 14:33N 25°47' W 080°11'0 0.0
2015-Mar-27 13:21N 25°47' W 080°11'0 0.1
2015-Mar-27 10:26N 25°47' W 080°11'8 7.4
2015-Mar-27 09:23N 25°47' W 080°02'8 9.8
2015-Mar-27 08:33N 25°41' W 079°56'4113.9
2015-Mar-27 05:33N 25°00' W 080°03'3415.9
2015-Mar-27 03:26N 24°37' W 080°30'1416.2
2015-Mar-27 02:33N 24°30' W 080°44'1818.1
2015-Mar-27 01:34N 24°23' W 081°02'1817.7
2015-Mar-27 00:33N 24°18' W 081°21'1018.0
2015-Mar-27 00:00N 24°12' W 081°30'94 5.2 150 / 141012.7 26.024.6
2015-Mar-26 06:00N 25°06' W 080°06'816.2 160 / 121017.0 25.0
2015-Mar-26 05:31N 25°13' W 080°04'4615.3
2015-Mar-26 02:33N 25°47' W 079°30'1616.3
2015-Mar-26 01:33N 25°59' W 079°18'1616.5
2015-Mar-26 00:33N 26°10' W 079°05'1527.2
2015-Mar-26 00:00N 26°06' W 078°48'3 6.0 170 / 51018.027.0 25.820.324.0
2015-Mar-25 23:33N 26°05' W 078°45'2217.8
2015-Mar-25 22:21N 25°58' W 078°23'1417.8
2015-Mar-25 21:33N 25°54' W 078°08'29 0.7
2015-Mar-24 06:00N 25°48' W 077°36'8814.7 070 / 71014.0 5.4 23.619.824.0
2015-Mar-24 00:00N 26°06' W 079°12'815.3 360 / 241012.6 24.523.1
2015-Mar-23 23:27N 26°04' W 079°21'1516.6
2015-Mar-23 22:33N 25°58' W 079°36'1615.9
2015-Mar-23 21:33N 25°51' W 079°52'1414.1
2015-Mar-23 20:33N 25°46' W 080°06'4 2.1
2015-Mar-23 18:31N 25°47' W 080°11'0 0.0
2015-Mar-23 10:31N 25°47' W 080°11'9 6.8
2015-Mar-23 09:08N 25°48' W 080°00'610.6
2015-Mar-23 08:33N 25°50' W 079°54'1313.1
2015-Mar-23 07:33N 25°56' W 079°41'1413.6
2015-Mar-23 06:33N 26°02' W 079°27'1425.5
2015-Mar-23 06:00N 26°06' W 079°12'2 5.6 280 / 191014.010.8 24.719.324.0
2015-Mar-23 05:33N 26°08' W 079°11'5415.9
2015-Mar-23 02:10N 26°00' W 078°12'915.5
2015-Mar-23 01:34N 25°58' W 078°02'3019.2
2015-Mar-23 00:00N 25°48' W 077°30'32 1.8 190 / 81014.6 25.021.4
2015-Mar-22 06:00N 25°18' W 077°18'25 4.1 180 / 41017.010.8 23.519.824.0
2015-Mar-22 00:00N 25°42' W 077°24'30 5.2 320 / 11017.0 25.021.4
2015-Mar-21 18:14N 25°50' W 077°56'0 0.0
2015-Mar-21 17:29N 25°50' W 077°56'20 2.5
2015-Mar-21 09:25N 25°58' W 078°17'14 4.2
2015-Mar-21 06:00N 26°06' W 078°30'44 9.7 240 / 91018.027.0 23.819.724.0
2015-Mar-21 01:29N 26°19' W 079°17'13 9.7
2015-Mar-21 00:06N 26°08' W 079°26'323.2
2015-Mar-21 00:00N 26°06' W 079°24'921.1 200 / 131017.1 25.520.4
2015-Mar-20 23:33N 26°02' W 079°33'1515.1
2015-Mar-20 22:33N 25°55' W 079°48'1514.9
2015-Mar-20 21:34N 25°47' W 080°02'8 7.2
2015-Mar-20 20:28N 25°47' W 080°11'0 0.0
2015-Mar-20 16:22N 25°47' W 080°11'0 0.0
2015-Mar-20 15:22N 25°47' W 080°11'0 0.0
2015-Mar-20 14:22N 25°47' W 080°11'0 0.0
2015-Mar-20 13:22N 25°47' W 080°11'0 0.0
2015-Mar-20 12:28N 25°47' W 080°11'0 0.0
2015-Mar-20 11:28N 25°47' W 080°11'0 0.0
2015-Mar-20 10:31N 25°47' W 080°11'5 5.0
2015-Mar-20 09:33N 25°46' W 080°05'1110.8
2015-Mar-20 08:33N 25°40' W 079°55'1513.7
2015-Mar-20 07:30N 25°26' W 079°52'11615.5
2015-Mar-20 00:00N 24°12' W 081°30'146 6.6 030 / 61015.5 24.019.6
2015-Mar-19 02:05N 25°49' W 079°30'1016.9
2015-Mar-19 01:30N 25°55' W 079°22'2718.1
2015-Mar-19 00:00N 26°06' W 078°54'4 9.4 290 / 11014.6 23.020.1
2015-Mar-18 23:33N 26°07' W 078°49'5116.7
2015-Mar-18 20:30N 25°50' W 077°56'0 0.1
2015-Mar-18 19:23N 25°50' W 077°56'0 0.0
2015-Mar-18 18:08N 25°50' W 077°56'0 0.0
2015-Mar-18 17:26N 25°50' W 077°56'0 0.0
2015-Mar-18 11:28N 25°50' W 077°56'  
Track history (hours):
 
Tides and Currents Weather Stations Pressure Air Temp Water Temp Dewpoint Dewpoint Depression Visibility Wind Speed Wind Dir Waves Ship Positions

Majesty of the Seas (Bahamas)

Last reported at 2015-Mar-27 16:15 UTC. Time now 2015-Mar-27 17:24 UTC.
Position N 25°47' W 080°11'.

Length 268 m; draft 7.6 m.

Type: Passenger vessel. MMSI: 311734000.

Date/timePositionNaut miles runAvg speedWind from/ knotsBaromVisibWave heightAir tempDewpointWater temp
2015-Mar-27 16:15N 25°47' W 080°11'0 0.0
2015-Mar-27 15:33N 25°47' W 080°11'0 0.0
2015-Mar-27 14:33N 25°47' W 080°11'0 0.0
2015-Mar-27 13:21N 25°47' W 080°11'0 0.1
2015-Mar-27 10:26N 25°47' W 080°11'8 7.4
2015-Mar-27 09:23N 25°47' W 080°02'8 9.8
2015-Mar-27 08:33N 25°41' W 079°56'4113.9
2015-Mar-27 05:33N 25°00' W 080°03'3415.9
2015-Mar-27 03:26N 24°37' W 080°30'1416.2
2015-Mar-27 02:33N 24°30' W 080°44'1818.1
2015-Mar-27 01:34N 24°23' W 081°02'1817.7
2015-Mar-27 00:33N 24°18' W 081°21'1018.0
2015-Mar-27 00:00N 24°12' W 081°30'94 5.2 150 / 141012.7 26.024.6
2015-Mar-26 06:00N 25°06' W 080°06'816.2 160 / 121017.0 25.0
2015-Mar-26 05:31N 25°13' W 080°04'4615.3
2015-Mar-26 02:33N 25°47' W 079°30'1616.3
2015-Mar-26 01:33N 25°59' W 079°18'1616.5
2015-Mar-26 00:33N 26°10' W 079°05'1527.2
2015-Mar-26 00:00N 26°06' W 078°48'3 6.0 170 / 51018.027.0 25.820.324.0
2015-Mar-25 23:33N 26°05' W 078°45'2217.8
2015-Mar-25 22:21N 25°58' W 078°23'1417.8
2015-Mar-25 21:33N 25°54' W 078°08'29 0.7
2015-Mar-24 06:00N 25°48' W 077°36'8814.7 070 / 71014.0 5.4 23.619.824.0
2015-Mar-24 00:00N 26°06' W 079°12'815.3 360 / 241012.6 24.523.1
2015-Mar-23 23:27N 26°04' W 079°21'1516.6
2015-Mar-23 22:33N 25°58' W 079°36'1615.9
2015-Mar-23 21:33N 25°51' W 079°52'1414.1
2015-Mar-23 20:33N 25°46' W 080°06'4 2.1
2015-Mar-23 18:31N 25°47' W 080°11'0 0.0
2015-Mar-23 10:31N 25°47' W 080°11'9 6.8
2015-Mar-23 09:08N 25°48' W 080°00'610.6
2015-Mar-23 08:33N 25°50' W 079°54'1313.1
2015-Mar-23 07:33N 25°56' W 079°41'1413.6
2015-Mar-23 06:33N 26°02' W 079°27'1425.5
2015-Mar-23 06:00N 26°06' W 079°12'2 5.6 280 / 191014.010.8 24.719.324.0
2015-Mar-23 05:33N 26°08' W 079°11'5415.9
2015-Mar-23 02:10N 26°00' W 078°12'915.5
2015-Mar-23 01:34N 25°58' W 078°02'3019.2
2015-Mar-23 00:00N 25°48' W 077°30'32 1.8 190 / 81014.6 25.021.4
2015-Mar-22 06:00N 25°18' W 077°18'25 4.1 180 / 41017.010.8 23.519.824.0
2015-Mar-22 00:00N 25°42' W 077°24'30 5.2 320 / 11017.0 25.021.4
2015-Mar-21 18:14N 25°50' W 077°56'0 0.0
2015-Mar-21 17:29N 25°50' W 077°56'20 2.5
2015-Mar-21 09:25N 25°58' W 078°17'14 4.2
2015-Mar-21 06:00N 26°06' W 078°30'44 9.7 240 / 91018.027.0 23.819.724.0
2015-Mar-21 01:29N 26°19' W 079°17'13 9.7
2015-Mar-21 00:06N 26°08' W 079°26'323.2
2015-Mar-21 00:00N 26°06' W 079°24'921.1 200 / 131017.1 25.520.4
2015-Mar-20 23:33N 26°02' W 079°33'1515.1
2015-Mar-20 22:33N 25°55' W 079°48'1514.9
2015-Mar-20 21:34N 25°47' W 080°02'8 7.2
2015-Mar-20 20:28N 25°47' W 080°11'0 0.0
2015-Mar-20 16:22N 25°47' W 080°11'0 0.0
2015-Mar-20 15:22N 25°47' W 080°11'0 0.0
2015-Mar-20 14:22N 25°47' W 080°11'0 0.0
2015-Mar-20 13:22N 25°47' W 080°11'0 0.0
2015-Mar-20 12:28N 25°47' W 080°11'0 0.0
2015-Mar-20 11:28N 25°47' W 080°11'0 0.0
2015-Mar-20 10:31N 25°47' W 080°11'5 5.0
2015-Mar-20 09:33N 25°46' W 080°05'1110.8
2015-Mar-20 08:33N 25°40' W 079°55'1513.7
2015-Mar-20 07:30N 25°26' W 079°52'11615.5
2015-Mar-20 00:00N 24°12' W 081°30'146 6.6 030 / 61015.5 24.019.6
2015-Mar-19 02:05N 25°49' W 079°30'1016.9
2015-Mar-19 01:30N 25°55' W 079°22'2718.1
2015-Mar-19 00:00N 26°06' W 078°54'4 9.4 290 / 11014.6 23.020.1
2015-Mar-18 23:33N 26°07' W 078°49'5116.7
2015-Mar-18 20:30N 25°50' W 077°56'0 0.1
2015-Mar-18 19:23N 25°50' W 077°56'0 0.0
2015-Mar-18 18:08N 25°50' W 077°56'0 0.0
2015-Mar-18 17:26N 25°50' W 077°56'0 0.0
2015-Mar-18 11:28N 25°50' W 077°56'  

Dump ship's entire track history